Terminal Aerodrome Forecast
Issued by NWS Knoxville/Tri Cities, TN

Home | Current Version | Previous Version | Text Only | Print | Product List | Glossary On
Versions: 1 2 3 4 5 6 7 8 9 10 11 12 13 14 15 16 17 18 19 20 21 22 23 24 25 26 27 28 29
291
FTUS44 KMRX 090005 AAA
TAFCHA
TAF AMD
KCHA 090005Z 0900/0924 30011G21KT P6SM VCSH OVC050
      TEMPO 0900/0903 3SM -RASN BR BKN025
     FM090300 29008KT P6SM VCSH OVC040
     FM090500 30010KT P6SM -SHSN OVC030
     FM090900 31008KT P6SM -SHSN OVC020
     FM091700 28009G18KT P6SM OVC020
     FM092100 29010KT P6SM OVC050=

USA.gov is the U.S. government's official web portal to all federal, state and local government web resources and services.